Time;durP1;ratioP1;P1;durP2;ratioP2;P2;SDS_P1;SDS_P2;PMS_P1;PMS_P2;Temp;Humidity;BMP_temperature;BMP_pressure;BME280_temperature;BME280_humidity;BME280_pressure;Samples;Min_cycle;Max_cycle;Signal;HPM_P1;HPM_P2
2022/12/09 00:01:58;;;;;;;31.35;15.20;;;-0.50;99.90;;;;;;5053500;28;20055;-80
2022/12/09 00:04:24;;;;;;;31.80;15.40;;;-0.50;99.90;;;;;;5053586;28;20040;-80
2022/12/09 00:06:50;;;;;;;34.80;15.98;;;-0.40;99.90;;;;;;5053304;28;20045;-80
2022/12/09 00:09:16;;;;;;;28.33;14.43;;;-0.50;99.90;;;;;;5053319;28;20037;-80
2022/12/09 00:11:44;;;;;;;29.25;15.27;;;-0.50;99.90;;;;;;5053592;28;20110;-80
2022/12/09 00:14:11;;;;;;;31.73;16.27;;;-0.60;99.90;;;;;;5053355;28;20048;-79
2022/12/09 00:16:37;;;;;;;31.63;15.85;;;-0.70;99.90;;;;;;5052861;28;20110;-80
2022/12/09 00:19:03;;;;;;;38.08;17.52;;;-0.50;99.90;;;;;;5053298;28;20095;-80
2022/12/09 00:21:31;;;;;;;30.10;15.23;;;-0.60;99.90;;;;;;5052902;28;20084;-79
2022/12/09 00:23:58;;;;;;;31.52;15.75;;;-0.50;99.90;;;;;;5053051;28;20056;-79
2022/12/09 00:26:25;;;;;;;31.27;15.85;;;-0.50;99.90;;;;;;5052944;28;20401;-79
2022/12/09 00:28:52;;;;;;;32.33;16.38;;;-0.60;99.90;;;;;;5053371;28;20049;-79
2022/12/09 00:31:23;;;;;;;34.55;17.58;;;-0.60;99.90;;;;;;5053226;28;20194;-79
2022/12/09 00:33:49;;;;;;;31.85;16.58;;;-0.60;99.90;;;;;;5053060;28;20045;-79
2022/12/09 00:36:18;;;;;;;33.60;15.73;;;-0.60;99.90;;;;;;5053020;28;20045;-80
2022/12/09 00:38:44;;;;;;;39.92;18.05;;;-0.70;99.90;;;;;;5052803;28;20045;-79
2022/12/09 00:41:11;;;;;;;35.08;16.58;;;-0.60;99.90;;;;;;5053042;28;20037;-79
2022/12/09 00:43:36;;;;;;;37.20;16.38;;;-0.70;99.90;;;;;;5052870;28;20041;-79
2022/12/09 00:46:02;;;;;;;35.83;16.70;;;-0.60;99.90;;;;;;5052412;28;20132;-80
2022/12/09 00:48:28;;;;;;;36.17;15.98;;;-0.70;99.90;;;;;;5052578;28;20040;-79
2022/12/09 00:50:54;;;;;;;32.30;16.45;;;-0.70;99.90;;;;;;5052781;28;20098;-79
2022/12/09 00:53:20;;;;;;;30.90;15.57;;;-0.70;99.90;;;;;;5052608;28;20397;-79
2022/12/09 00:55:46;;;;;;;36.45;16.70;;;-0.80;99.90;;;;;;5052550;28;20045;-79
2022/12/09 00:58:12;;;;;;;32.95;15.98;;;-0.80;99.90;;;;;;5052588;28;20132;-79
2022/12/09 01:00:38;;;;;;;37.75;17.00;;;-0.60;99.90;;;;;;5052347;28;20503;-79
2022/12/09 01:03:04;;;;;;;45.88;19.13;;;-0.60;99.90;;;;;;5052598;28;20107;-79
2022/12/09 01:05:30;;;;;;;41.22;19.55;;;-0.50;99.90;;;;;;5052344;28;20037;-79
2022/12/09 01:07:55;;;;;;;38.67;18.80;;;-0.50;99.90;;;;;;5052306;28;20040;-79
2022/12/09 01:10:21;;;;;;;41.90;18.38;;;-0.60;99.90;;;;;;5052365;28;20068;-79
2022/12/09 01:12:47;;;;;;;35.08;16.92;;;-0.40;99.90;;;;;;5052387;28;20097;-79
2022/12/09 01:15:12;;;;;;;45.53;17.95;;;-0.50;99.90;;;;;;5052637;28;20033;-79
2022/12/09 01:17:39;;;;;;;46.00;19.30;;;-0.40;99.90;;;;;;5052390;28;20507;-79
2022/12/09 01:20:08;;;;;;;44.30;18.48;;;-0.50;99.90;;;;;;5052133;28;20476;-79
2022/12/09 01:22:34;;;;;;;37.05;17.75;;;-0.40;99.90;;;;;;5052047;28;20049;-79
2022/12/09 01:25:00;;;;;;;39.80;18.98;;;-0.40;99.90;;;;;;5052514;28;20049;-79
2022/12/09 01:27:28;;;;;;;39.88;17.35;;;-0.50;99.90;;;;;;5052150;28;20405;-79
2022/12/09 01:29:54;;;;;;;39.35;18.95;;;-0.40;99.90;;;;;;5058359;28;20044;-79
2022/12/09 01:32:19;;;;;;;39.40;18.42;;;-0.50;99.90;;;;;;5058729;28;20051;-79
2022/12/09 01:34:45;;;;;;;36.53;17.55;;;-0.40;99.90;;;;;;5058984;28;20040;-79
2022/12/09 01:37:11;;;;;;;35.60;17.50;;;-0.40;99.90;;;;;;5058690;28;20075;-79
2022/12/09 01:39:36;;;;;;;37.22;18.48;;;-0.50;99.90;;;;;;5058709;28;20036;-79
2022/12/09 01:42:04;;;;;;;38.05;19.50;;;-0.60;99.90;;;;;;5060053;28;20523;-79
2022/12/09 01:44:32;;;;;;;35.80;18.40;;;-0.60;99.90;;;;;;5060048;28;20120;-79
2022/12/09 01:47:00;;;;;;;41.78;20.02;;;-0.70;99.90;;;;;;5058638;28;20535;-79
2022/12/09 01:49:36;;;;;;;43.00;19.92;;;-0.70;99.90;;;;;;5058898;28;20056;-79
2022/12/09 01:52:08;;;;;;;50.45;21.73;;;-0.60;99.90;;;;;;5059028;28;20095;-79
2022/12/09 01:54:34;;;;;;;67.82;23.65;;;-0.70;99.90;;;;;;5060038;28;20040;-79
2022/12/09 01:57:00;;;;;;;99.18;24.20;;;-0.70;99.90;;;;;;5058811;28;20110;-79
2022/12/09 01:59:27;;;;;;;49.92;20.73;;;-0.70;99.90;;;;;;5059980;28;20036;-79
2022/12/09 02:01:57;;;;;;;122.82;22.38;;;-0.70;99.90;;;;;;5058778;28;20068;-79
2022/12/09 02:04:24;;;;;;;86.93;22.27;;;-0.70;99.90;;;;;;5058592;28;20045;-79
2022/12/09 02:06:50;;;;;;;103.20;23.05;;;-0.60;99.90;;;;;;5058509;28;20174;-79
2022/12/09 02:09:16;;;;;;;75.03;21.38;;;-0.60;99.90;;;;;;5058547;28;20128;-79
2022/12/09 02:12:15;;;;;;;61.90;19.88;;;-0.60;99.90;;;;;;5058500;28;20052;-79
2022/12/09 02:15:08;;;;;;;76.43;22.20;;;-0.70;99.90;;;;;;5058265;28;20052;-79
2022/12/09 02:17:49;;;;;;;54.25;21.42;;;-0.70;99.90;;;;;;5059898;28;20048;-79
2022/12/09 02:20:22;;;;;;;46.50;20.08;;;-0.70;99.90;;;;;;5058364;28;20052;-79
2022/12/09 02:23:06;;;;;;;46.15;21.55;;;-0.60;99.90;;;;;;5059479;28;20060;-79
2022/12/09 02:25:59;;;;;;;42.65;20.00;;;-0.70;99.90;;;;;;5058435;28;20098;-79
2022/12/09 02:28:36;;;;;;;46.55;19.23;;;-0.70;99.90;;;;;;5059733;28;20052;-79
2022/12/09 02:31:32;;;;;;;34.17;17.05;;;-0.80;99.90;;;;;;5059912;28;20052;-79
2022/12/09 02:34:17;;;;;;;38.03;17.55;;;-0.70;99.90;;;;;;5038653;28;20172;-79
2022/12/09 02:36:58;;;;;;;34.75;16.90;;;-0.70;99.90;;;;;;5038592;28;20393;-79
2022/12/09 02:39:47;;;;;;;35.30;16.88;;;-0.80;99.90;;;;;;5037262;28;20048;-79
2022/12/09 02:42:17;;;;;;;39.35;17.58;;;-0.80;99.90;;;;;;5014793;28;20060;-79
2022/12/09 02:44:46;;;;;;;35.83;16.67;;;-0.80;99.90;;;;;;5035204;28;20046;-79
2022/12/09 02:47:17;;;;;;;40.03;17.60;;;-0.70;99.90;;;;;;5035169;28;20053;-79
2022/12/09 02:49:47;;;;;;;35.83;15.90;;;-0.70;99.90;;;;;;5035011;28;20057;-79
2022/12/09 02:52:13;;;;;;;42.20;17.30;;;-0.80;99.90;;;;;;5034977;28;20053;-79
2022/12/09 02:54:42;;;;;;;37.20;17.80;;;-0.70;99.90;;;;;;5035191;28;20041;-79
2022/12/09 02:57:17;;;;;;;39.47;17.55;;;-0.70;99.90;;;;;;5036241;28;20057;-79
2022/12/09 02:59:43;;;;;;;40.30;16.25;;;-0.70;99.90;;;;;;5036206;28;20087;-79
2022/12/09 03:02:30;;;;;;;34.58;17.17;;;-0.70;99.90;;;;;;5036317;28;20045;-79
2022/12/09 03:05:24;;;;;;;35.67;15.88;;;-0.70;99.90;;;;;;5034767;28;20041;-79
2022/12/09 03:08:02;;;;;;;34.03;16.55;;;-0.70;99.90;;;;;;5035839;28;20103;-79
2022/12/09 03:10:38;;;;;;;39.67;16.30;;;-0.80;99.90;;;;;;5036257;28;20080;-79
2022/12/09 03:13:14;;;;;;;31.58;15.55;;;-0.80;99.90;;;;;;5034598;28;20424;-79
2022/12/09 03:15:45;;;;;;;30.63;15.15;;;-0.70;99.90;;;;;;5034907;28;20089;-79
2022/12/09 03:18:13;;;;;;;33.60;15.23;;;-0.70;99.90;;;;;;5034572;28;20098;-79
2022/12/09 03:20:41;;;;;;;33.90;16.15;;;-0.60;99.90;;;;;;5034552;28;20128;-79
2022/12/09 03:23:12;;;;;;;40.15;16.48;;;-0.70;99.90;;;;;;5034167;28;20489;-79
2022/12/09 03:25:42;;;;;;;34.30;15.65;;;-0.60;99.90;;;;;;5035666;28;20046;-79
2022/12/09 03:28:14;;;;;;;33.90;15.10;;;-0.60;99.90;;;;;;5034367;28;20485;-79
2022/12/09 03:30:43;;;;;;;32.33;14.82;;;-0.70;99.90;;;;;;5034350;28;20041;-79
2022/12/09 03:33:11;;;;;;;39.20;16.65;;;-0.70;99.90;;;;;;5034332;28;20060;-79
2022/12/09 03:35:42;;;;;;;28.75;13.60;;;-0.60;99.90;;;;;;5034110;28;20390;-79
2022/12/09 03:38:12;;;;;;;36.05;15.13;;;-0.70;99.90;;;;;;5034148;28;20046;-79
2022/12/09 03:40:39;;;;;;;31.90;14.13;;;-0.60;99.90;;;;;;5035574;28;20050;-79
2022/12/09 03:43:14;;;;;;;30.05;14.10;;;-0.60;99.90;;;;;;5034175;28;20041;-79
2022/12/09 03:45:41;;;;;;;31.73;13.73;;;-0.80;99.90;;;;;;5033828;28;20052;-80
2022/12/09 03:48:07;;;;;;;27.48;13.70;;;-0.70;99.90;;;;;;5033936;28;20052;-79
2022/12/09 03:50:39;;;;;;;29.42;14.77;;;-0.60;99.90;;;;;;5034109;28;20043;-79
2022/12/09 03:53:20;;;;;;;26.85;12.98;;;-0.70;99.90;;;;;;5033063;28;20041;-80
2022/12/09 03:55:56;;;;;;;38.72;15.35;;;-0.70;99.90;;;;;;5035071;28;20077;-79
2022/12/09 03:58:23;;;;;;;27.45;12.60;;;-0.70;99.90;;;;;;5033746;28;20128;-79
2022/12/09 04:00:48;;;;;;;30.33;14.20;;;-0.60;99.90;;;;;;5035029;28;20064;-79
2022/12/09 04:03:16;;;;;;;30.85;15.57;;;-0.70;99.90;;;;;;5033673;28;20442;-79
2022/12/09 04:05:42;;;;;;;25.63;12.20;;;-0.70;99.90;;;;;;5033845;28;20440;-79
2022/12/09 04:08:08;;;;;;;28.60;13.15;;;-0.60;99.90;;;;;;5033557;28;20045;-79
2022/12/09 04:10:34;;;;;;;32.25;13.43;;;-0.70;99.90;;;;;;5035090;28;20050;-79
2022/12/09 04:12:59;;;;;;;30.40;13.13;;;-0.70;99.90;;;;;;5033408;28;20053;-80
2022/12/09 04:15:25;;;;;;;27.98;11.88;;;-0.70;99.90;;;;;;5033707;28;20103;-79
2022/12/09 04:17:51;;;;;;;30.88;13.13;;;-0.70;99.90;;;;;;5034635;28;20046;-79
2022/12/09 04:20:16;;;;;;;29.08;13.80;;;-0.70;99.90;;;;;;5033716;28;20080;-79
2022/12/09 04:22:42;;;;;;;34.13;13.07;;;-0.70;99.90;;;;;;5033074;28;20417;-80
2022/12/09 04:25:08;;;;;;;25.92;12.05;;;-0.70;99.90;;;;;;5033529;28;20053;-80
2022/12/09 04:27:34;;;;;;;27.75;11.52;;;-0.70;99.90;;;;;;5034306;28;20183;-79
2022/12/09 04:29:59;;;;;;;29.98;12.80;;;-0.50;99.90;;;;;;5034407;28;20112;-80
2022/12/09 04:32:25;;;;;;;28.63;12.60;;;-0.60;99.90;;;;;;5034154;28;20400;-80
2022/12/09 04:34:50;;;;;;;28.00;12.02;;;-0.60;99.90;;;;;;5033187;28;20056;-80
2022/12/09 04:37:16;;;;;;;27.20;12.23;;;-0.60;99.90;;;;;;5034352;28;20037;-80
2022/12/09 04:39:42;;;;;;;25.63;11.32;;;-0.50;99.90;;;;;;5034003;28;20049;-80
2022/12/09 04:42:08;;;;;;;29.33;12.93;;;-0.40;99.90;;;;;;5034037;28;20124;-80
2022/12/09 04:44:33;;;;;;;28.00;11.80;;;-0.40;99.90;;;;;;5034269;28;20045;-80
2022/12/09 04:46:59;;;;;;;26.60;12.52;;;-0.50;99.90;;;;;;5034251;28;20042;-80
2022/12/09 04:49:24;;;;;;;31.13;12.02;;;-0.30;99.90;;;;;;5033099;28;20053;-80
2022/12/09 04:51:50;;;;;;;27.65;12.68;;;-0.30;99.90;;;;;;5032767;28;20042;-80
2022/12/09 04:54:16;;;;;;;27.95;12.43;;;-0.40;99.90;;;;;;5032798;28;20049;-79
2022/12/09 04:56:42;;;;;;;32.40;12.63;;;-0.20;99.90;;;;;;5032962;28;20092;-79
2022/12/09 04:59:08;;;;;;;33.38;14.35;;;-0.40;99.90;;;;;;5033872;28;20124;-79
2022/12/09 05:01:33;;;;;;;32.47;12.23;;;-0.30;99.90;;;;;;5032643;28;20124;-79
2022/12/09 05:03:59;;;;;;;29.80;13.00;;;-0.20;99.90;;;;;;5033605;28;20045;-79
2022/12/09 05:06:25;;;;;;;32.15;12.98;;;-0.20;99.90;;;;;;5032514;28;20056;-79
2022/12/09 05:08:50;;;;;;;29.73;12.95;;;-0.10;99.90;;;;;;5016204;28;20037;-79
2022/12/09 05:11:18;;;;;;;29.33;13.02;;;-0.20;99.90;;;;;;5033861;28;20034;-79
2022/12/09 05:13:43;;;;;;;26.40;10.70;;;-0.20;99.90;;;;;;5033767;28;20041;-79
2022/12/09 05:16:12;;;;;;;30.00;13.07;;;-0.10;99.90;;;;;;5032739;28;20064;-79
2022/12/09 05:18:38;;;;;;;29.05;12.82;;;-0.20;99.90;;;;;;5033698;28;20102;-79
2022/12/09 05:21:08;;;;;;;29.65;13.27;;;-0.20;99.90;;;;;;5032078;28;20124;-79
2022/12/09 05:23:35;;;;;;;31.20;12.65;;;-0.20;99.90;;;;;;5033746;28;20072;-79
2022/12/09 05:26:05;;;;;;;27.40;12.10;;;-0.10;99.90;;;;;;5033420;28;20482;-79
2022/12/09 05:28:32;;;;;;;26.33;12.10;;;-0.10;99.90;;;;;;5032229;28;20046;-79
2022/12/09 05:31:03;;;;;;;28.65;12.95;;;-0.20;99.90;;;;;;5032189;28;20077;-79
2022/12/09 05:33:29;;;;;;;25.90;10.63;;;-0.20;99.90;;;;;;5033635;28;20049;-79
2022/12/09 05:35:55;;;;;;;30.25;12.68;;;-0.20;99.90;;;;;;5032351;28;20049;-79
2022/12/09 05:38:21;;;;;;;27.55;11.77;;;-0.10;99.90;;;;;;5033425;28;20370;-80
2022/12/09 05:40:47;;;;;;;29.60;11.55;;;-0.20;99.90;;;;;;5033595;28;20159;-79
2022/12/09 05:43:13;;;;;;;25.67;11.63;;;-0.30;99.90;;;;;;5033450;28;20080;-79
2022/12/09 05:45:39;;;;;;;27.17;12.98;;;-0.30;99.90;;;;;;5033503;28;20042;-79
2022/12/09 05:48:05;;;;;;;30.83;12.48;;;-0.20;99.90;;;;;;5032140;28;20444;-80
2022/12/09 05:50:31;;;;;;;27.90;11.98;;;-0.30;99.90;;;;;;5032296;28;20036;-79
2022/12/09 05:52:59;;;;;;;27.63;11.50;;;-0.30;99.90;;;;;;5033635;28;20134;-79
2022/12/09 05:55:25;;;;;;;29.30;11.82;;;-0.30;99.90;;;;;;5032010;28;20382;-79
2022/12/09 05:57:50;;;;;;;25.98;11.00;;;-0.40;99.90;;;;;;5032079;28;20496;-79
2022/12/09 06:00:17;;;;;;;28.15;11.68;;;-0.30;99.90;;;;;;5032285;28;20049;-79
2022/12/09 06:02:43;;;;;;;29.30;11.95;;;-0.40;99.90;;;;;;5032062;28;20516;-79
2022/12/09 06:05:08;;;;;;;25.73;12.02;;;-0.30;99.90;;;;;;5033349;28;20174;-79
2022/12/09 06:07:34;;;;;;;25.75;11.63;;;-0.30;99.90;;;;;;5033244;28;20045;-79
2022/12/09 06:10:00;;;;;;;31.35;12.18;;;-0.30;99.90;;;;;;5031893;28;20083;-79
2022/12/09 06:12:26;;;;;;;29.13;12.57;;;-0.30;99.90;;;;;;5031931;28;20124;-79
2022/12/09 06:14:52;;;;;;;29.45;12.18;;;-0.30;99.90;;;;;;5033588;28;20110;-79
2022/12/09 06:17:17;;;;;;;29.27;13.15;;;-0.20;99.90;;;;;;5036897;28;20041;-79
2022/12/09 06:19:43;;;;;;;29.95;12.13;;;-0.10;99.90;;;;;;5035727;28;20511;-80
2022/12/09 06:22:09;;;;;;;33.60;13.80;;;-0.20;99.90;;;;;;5036483;28;20469;-79
2022/12/09 06:24:34;;;;;;;32.83;13.20;;;-0.10;99.90;;;;;;5035495;28;20124;-80
2022/12/09 06:27:01;;;;;;;32.03;13.75;;;-0.20;99.90;;;;;;5036720;28;20046;-80
2022/12/09 06:29:27;;;;;;;40.22;15.23;;;-0.10;99.90;;;;;;5037139;28;20060;-80
2022/12/09 06:31:52;;;;;;;38.35;14.57;;;-0.10;99.90;;;;;;5036696;28;20049;-80
2022/12/09 06:34:18;;;;;;;37.17;16.25;;;-0.20;99.90;;;;;;5035698;28;20125;-80
2022/12/09 06:36:44;;;;;;;35.70;16.20;;;-0.20;99.90;;;;;;5036889;28;20147;-80
2022/12/09 06:39:10;;;;;;;31.58;14.63;;;-0.20;99.90;;;;;;5036424;28;20049;-80
2022/12/09 06:41:36;;;;;;;35.03;13.40;;;-0.20;99.90;;;;;;5035264;28;20045;-80
2022/12/09 06:44:01;;;;;;;31.73;13.82;;;0.00;99.90;;;;;;5036562;28;20041;-80
2022/12/09 06:46:27;;;;;;;35.22;13.40;;;-0.10;99.90;;;;;;5036311;28;20037;-80
2022/12/09 06:48:54;;;;;;;32.05;14.55;;;-0.10;99.90;;;;;;5036180;28;20405;-79
2022/12/09 06:51:21;;;;;;;31.83;12.15;;;-0.20;99.90;;;;;;5034927;28;20457;-79
2022/12/09 06:53:47;;;;;;;29.25;12.50;;;-0.10;99.90;;;;;;5036146;28;20548;-79
2022/12/09 06:56:14;;;;;;;30.08;13.85;;;-0.10;99.90;;;;;;5036197;28;20058;-79
2022/12/09 06:58:41;;;;;;;32.75;13.88;;;-0.20;99.90;;;;;;5036292;28;20052;-79
2022/12/09 07:01:12;;;;;;;31.58;12.55;;;-0.20;99.90;;;;;;5036126;28;20129;-79
2022/12/09 07:03:42;;;;;;;30.40;13.35;;;-0.20;99.90;;;;;;5034699;28;20045;-79
2022/12/09 07:06:30;;;;;;;34.47;15.25;;;-0.30;99.90;;;;;;5034701;28;20049;-79
2022/12/09 07:08:58;;;;;;;34.42;15.05;;;-0.20;99.90;;;;;;5034978;28;20052;-79
2022/12/09 07:11:24;;;;;;;33.58;13.90;;;-0.10;99.90;;;;;;5034966;28;20393;-79
2022/12/09 07:13:50;;;;;;;31.15;13.60;;;-0.20;99.90;;;;;;5034671;28;20053;-79
2022/12/09 07:16:16;;;;;;;33.95;14.65;;;-0.30;99.90;;;;;;5034508;28;20171;-79
2022/12/09 07:18:41;;;;;;;35.25;15.25;;;-0.30;99.90;;;;;;5034522;28;20144;-79
2022/12/09 07:21:09;;;;;;;34.88;15.55;;;-0.50;99.90;;;;;;5034295;28;20146;-79
2022/12/09 07:23:36;;;;;;;31.90;13.85;;;-0.50;99.90;;;;;;5034152;28;20057;-79
2022/12/09 07:26:04;;;;;;;36.35;13.98;;;-0.40;99.90;;;;;;5034806;28;20120;-79
2022/12/09 07:28:30;;;;;;;32.47;14.43;;;-0.60;99.90;;;;;;5034048;28;20053;-79
2022/12/09 07:30:56;;;;;;;37.28;14.63;;;-0.60;99.90;;;;;;5033200;28;20497;-79
2022/12/09 07:33:22;;;;;;;33.20;13.38;;;-0.60;99.90;;;;;;5033912;28;20091;-79
2022/12/09 07:35:47;;;;;;;33.83;15.60;;;-0.40;99.90;;;;;;5034296;28;20064;-80
2022/12/09 07:38:13;;;;;;;39.13;16.13;;;-0.50;99.90;;;;;;5035225;28;20504;-79
2022/12/09 07:40:39;;;;;;;40.08;15.93;;;-0.50;99.90;;;;;;5033909;28;20049;-79
2022/12/09 07:43:07;;;;;;;38.78;14.30;;;-0.50;99.90;;;;;;5033874;28;20060;-79
2022/12/09 07:45:33;;;;;;;31.90;12.82;;;-0.50;99.90;;;;;;5033792;28;20052;-79
2022/12/09 07:47:59;;;;;;;35.47;14.45;;;-0.50;99.90;;;;;;5034982;28;20045;-79
2022/12/09 07:50:24;;;;;;;37.78;15.27;;;-0.50;99.90;;;;;;5035247;28;20034;-79
2022/12/09 07:52:50;;;;;;;41.95;16.63;;;-0.50;99.90;;;;;;5034999;28;20547;-79
2022/12/09 07:55:16;;;;;;;33.85;15.95;;;-0.50;99.90;;;;;;5033739;28;20050;-79
2022/12/09 07:57:41;;;;;;;39.35;16.23;;;-0.60;99.90;;;;;;5035054;28;20054;-79
2022/12/09 08:00:07;;;;;;;44.33;17.65;;;-0.60;99.90;;;;;;5035084;28;20041;-80
2022/12/09 08:02:33;;;;;;;43.15;16.95;;;-0.50;99.90;;;;;;5035028;28;20136;-79
2022/12/09 08:05:00;;;;;;;44.15;18.52;;;-0.50;99.90;;;;;;5033456;28;20119;-79
2022/12/09 08:07:26;;;;;;;50.60;19.73;;;-0.40;99.90;;;;;;5033331;28;20501;-79
2022/12/09 08:09:54;;;;;;;49.55;18.67;;;-0.40;99.90;;;;;;5033248;28;20124;-79
2022/12/09 08:12:21;;;;;;;46.88;19.02;;;-0.30;99.90;;;;;;5034889;28;20103;-79
2022/12/09 08:14:47;;;;;;;48.67;19.30;;;-0.40;99.90;;;;;;5034777;28;20049;-79
2022/12/09 08:17:12;;;;;;;57.40;20.27;;;-0.20;99.90;;;;;;5033222;28;20129;-79
2022/12/09 08:19:38;;;;;;;58.97;21.23;;;-0.20;99.90;;;;;;5034343;28;20041;-79
2022/12/09 08:22:04;;;;;;;57.78;22.10;;;-0.30;99.90;;;;;;5032980;28;20136;-79
2022/12/09 08:24:29;;;;;;;54.55;20.48;;;-0.10;99.90;;;;;;5033019;28;20049;-79
2022/12/09 08:26:55;;;;;;;56.08;23.88;;;0.00;99.90;;;;;;5033097;28;20119;-79
2022/12/09 08:29:21;;;;;;;55.75;20.48;;;-0.10;99.90;;;;;;5033189;28;20069;-79
2022/12/09 08:31:46;;;;;;;57.13;22.40;;;0.00;99.90;;;;;;5032959;28;20057;-78
2022/12/09 08:34:13;;;;;;;56.03;20.27;;;0.10;99.90;;;;;;5032879;28;20049;-79
2022/12/09 08:36:39;;;;;;;64.93;23.38;;;0.10;99.90;;;;;;5034935;28;20080;-79
2022/12/09 08:39:05;;;;;;;64.07;25.15;;;0.10;99.90;;;;;;5032353;28;20481;-79
2022/12/09 08:41:33;;;;;;;61.92;22.67;;;0.20;99.90;;;;;;5032817;28;20128;-80
2022/12/09 08:44:20;;;;;;;64.50;24.75;;;0.20;99.90;;;;;;5032853;28;20053;-78
2022/12/09 08:46:50;;;;;;;69.85;24.45;;;0.10;99.90;;;;;;5032604;28;20045;-78
2022/12/09 08:49:19;;;;;;;63.63;23.75;;;0.20;99.90;;;;;;5032698;28;20128;-78
2022/12/09 08:51:49;;;;;;;67.97;25.10;;;0.30;99.90;;;;;;5032829;28;20076;-78
2022/12/09 08:54:15;;;;;;;62.47;24.20;;;0.30;99.90;;;;;;5034011;28;20045;-78
2022/12/09 08:56:45;;;;;;;70.53;27.55;;;0.30;99.90;;;;;;5033735;28;20118;-78
2022/12/09 08:59:11;;;;;;;70.88;25.20;;;0.50;99.90;;;;;;5032538;28;20050;-78
2022/12/09 09:01:37;;;;;;;75.38;27.92;;;0.50;99.90;;;;;;5033986;28;20045;-78
2022/12/09 09:04:05;;;;;;;95.68;29.67;;;0.40;99.90;;;;;;5032614;28;20053;-78
2022/12/09 09:06:31;;;;;;;80.22;27.63;;;0.40;99.90;;;;;;5042338;28;20044;-77
2022/12/09 09:08:57;;;;;;;75.68;27.05;;;0.50;99.90;;;;;;5033042;28;20042;-78
2022/12/09 09:11:23;;;;;;;80.78;28.63;;;0.50;99.90;;;;;;5032113;28;20134;-77
2022/12/09 09:13:52;;;;;;;81.00;28.63;;;0.60;99.90;;;;;;5032374;28;20038;-78
2022/12/09 09:16:20;;;;;;;77.00;28.38;;;0.50;99.90;;;;;;5032355;28;20037;-77
2022/12/09 09:18:46;;;;;;;80.47;27.60;;;0.50;99.90;;;;;;5032334;28;20096;-78
2022/12/09 09:21:14;;;;;;;77.82;27.65;;;0.50;99.90;;;;;;5033228;28;20080;-79
2022/12/09 09:23:40;;;;;;;86.50;28.75;;;0.70;99.90;;;;;;5033356;28;20064;-78
2022/12/09 09:26:15;;;;;;;82.22;28.92;;;0.50;99.90;;;;;;5033091;28;20385;-77
2022/12/09 09:28:41;;;;;;;94.78;31.75;;;0.70;99.90;;;;;;5031960;28;20050;-77
2022/12/09 09:31:09;;;;;;;92.07;31.52;;;0.60;99.90;;;;;;5032104;28;20057;-76
2022/12/09 09:33:35;;;;;;;88.85;28.75;;;0.60;99.90;;;;;;5033153;28;20053;-76
2022/12/09 09:36:03;;;;;;;93.15;30.98;;;0.60;99.90;;;;;;5031948;28;20041;-76
2022/12/09 09:38:31;;;;;;;90.75;31.30;;;0.80;99.90;;;;;;5032188;28;20081;-76
2022/12/09 09:40:59;;;;;;;83.28;31.45;;;0.70;99.90;;;;;;5031814;28;20045;-76
2022/12/09 09:43:27;;;;;;;95.65;30.17;;;0.80;99.90;;;;;;5033023;28;20041;-76
2022/12/09 09:45:57;;;;;;;82.85;28.38;;;0.70;99.90;;;;;;5032817;28;20072;-76
2022/12/09 09:48:26;;;;;;;84.72;30.45;;;0.80;99.90;;;;;;5033009;28;20051;-80
2022/12/09 09:51:06;;;;;;;79.53;30.33;;;0.80;99.90;;;;;;5039193;28;20041;-78
2022/12/09 09:53:34;;;;;;;80.40;27.35;;;0.90;99.90;;;;;;5055155;28;20511;-78
2022/12/09 09:56:20;;;;;;;80.22;28.23;;;0.90;99.90;;;;;;5057096;28;20052;-78
2022/12/09 09:59:19;;;;;;;66.97;25.83;;;0.80;99.90;;;;;;5055827;28;20053;-78
2022/12/09 10:02:19;;;;;;;59.75;24.17;;;0.90;99.90;;;;;;5057108;28;20048;-78
2022/12/09 10:05:05;;;;;;;68.63;26.42;;;0.90;99.90;;;;;;5055973;28;20432;-78
2022/12/09 10:07:42;;;;;;;74.88;25.83;;;1.00;99.90;;;;;;5043949;28;20057;-76
2022/12/09 10:10:40;;;;;;;79.50;27.00;;;0.90;99.90;;;;;;5044507;28;20117;-78
2022/12/09 10:13:31;;;;;;;87.63;27.88;;;1.00;99.90;;;;;;5045270;28;20060;-78
2022/12/09 10:16:23;;;;;;;75.38;26.05;;;1.10;99.90;;;;;;5043879;28;20153;-78
2022/12/09 10:18:52;;;;;;;80.13;26.13;;;1.30;99.90;;;;;;5035599;28;20045;-77
2022/12/09 10:21:19;;;;;;;84.20;28.20;;;1.30;99.90;;;;;;5036127;28;20057;-78
2022/12/09 10:23:46;;;;;;;75.68;28.15;;;1.30;99.90;;;;;;5036321;28;20440;-78
2022/12/09 10:26:25;;;;;;;76.38;26.35;;;1.40;99.90;;;;;;5035339;28;20393;-78
2022/12/09 10:29:00;;;;;;;78.38;27.00;;;1.50;99.90;;;;;;5036420;28;20099;-78
2022/12/09 10:31:27;;;;;;;77.75;26.95;;;1.40;99.90;;;;;;5036576;28;20120;-78
2022/12/09 10:33:52;;;;;;;70.72;27.27;;;1.40;99.90;;;;;;5034999;28;20049;-77
2022/12/09 10:36:26;;;;;;;75.05;26.50;;;1.30;99.90;;;;;;5034937;28;20053;-79
2022/12/09 10:38:52;;;;;;;72.40;26.92;;;1.40;99.90;;;;;;5035089;28;20041;-78
2022/12/09 10:43:33;;;;;;;67.43;26.77;;;1.30;99.90;;;;;;5034834;28;20489;-78
2022/12/09 10:44:22;;;;;;;66.57;25.38;;;1.30;99.90;;;;;;5034811;28;20485;-78
2022/12/09 10:46:55;;;;;;;59.28;22.70;;;1.30;99.90;;;;;;5035965;28;20045;-78
2022/12/09 10:49:21;;;;;;;62.28;21.98;;;1.20;99.90;;;;;;5036203;28;20045;-78
2022/12/09 10:51:49;;;;;;;68.95;22.52;;;1.10;99.90;;;;;;5035996;28;20057;-79
2022/12/09 10:54:37;;;;;;;56.63;21.58;;;0.90;99.90;;;;;;5053403;28;20455;-79
2022/12/09 10:57:12;;;;;;;57.78;21.90;;;0.90;99.90;;;;;;5051268;28;20079;-79
2022/12/09 10:59:41;;;;;;;61.35;21.45;;;1.00;99.90;;;;;;5054474;28;20412;-79
2022/12/09 11:02:06;;;;;;;73.45;23.38;;;1.00;99.90;;;;;;5042024;28;20045;-79
2022/12/09 11:04:41;;;;;;;83.93;23.63;;;1.10;99.90;;;;;;5036225;28;20374;-81
2022/12/09 11:07:19;;;;;;;67.95;21.60;;;0.90;99.90;;;;;;5037587;28;20124;-78
2022/12/09 11:10:06;;;;;;;76.95;23.67;;;1.00;99.90;;;;;;5034371;28;20095;-77
2022/12/09 11:12:38;;;;;;;79.00;21.38;;;1.00;99.90;;;;;;5034601;28;20045;-77
2022/12/09 11:15:05;;;;;;;108.95;23.13;;;0.90;99.90;;;;;;5035549;28;20058;-78
2022/12/09 11:17:34;;;;;;;60.45;19.25;;;0.90;99.90;;;;;;5034447;28;20493;-77
2022/12/09 11:20:14;;;;;;;88.45;20.30;;;1.00;99.90;;;;;;5035486;28;20535;-77
2022/12/09 11:22:42;;;;;;;77.95;22.15;;;1.00;99.90;;;;;;5033980;28;20050;-77
2022/12/09 11:25:11;;;;;;;100.45;23.33;;;0.90;99.90;;;;;;5044570;28;20428;-78
2022/12/09 11:27:57;;;;;;;125.50;23.40;;;0.90;99.90;;;;;;5019894;28;20041;-77
2022/12/09 11:30:26;;;;;;;88.70;21.83;;;0.90;99.90;;;;;;5054107;28;20136;-78
2022/12/09 11:33:12;;;;;;;78.15;22.17;;;0.90;99.90;;;;;;5053902;28;20428;-77
2022/12/09 11:35:49;;;;;;;74.40;21.55;;;1.00;99.90;;;;;;5054084;28;20053;-77
2022/12/09 11:38:30;;;;;;;89.80;22.48;;;0.90;99.90;;;;;;5053911;28;20102;-77
2022/12/09 11:44:23;;;;;;;70.20;21.30;;;1.10;99.90;;;;;;5050462;28;20057;-78
2022/12/09 11:47:20;;;;;;;63.55;19.80;;;1.10;99.90;;;;;;5054939;28;20048;-77
2022/12/09 11:50:03;;;;;;;64.82;21.95;;;1.00;99.90;;;;;;5039770;28;20511;-77
2022/12/09 11:52:30;;;;;;;62.83;20.05;;;1.00;99.90;;;;;;5053488;28;20500;-76
2022/12/09 11:55:20;;;;;;;53.95;21.02;;;1.10;99.90;;;;;;5052990;28;20045;-78
2022/12/09 11:57:57;;;;;;;54.70;20.85;;;1.20;99.90;;;;;;5054482;28;20051;-79
2022/12/09 12:00:26;;;;;;;63.83;24.60;;;1.10;99.90;;;;;;5053624;28;20515;-78
2022/12/09 12:03:14;;;;;;;57.33;19.52;;;1.10;99.90;;;;;;5053210;28;20524;-78
2022/12/09 12:05:43;;;;;;;60.72;22.15;;;1.30;99.90;;;;;;5053462;28;20072;-78
2022/12/09 12:08:20;;;;;;;48.53;19.25;;;1.30;99.90;;;;;;5053045;28;20377;-78
2022/12/09 12:10:53;;;;;;;61.53;20.73;;;1.30;99.90;;;;;;5053408;28;20527;-78
2022/12/09 12:13:49;;;;;;;;;;;1.50;99.90;;;;;;5052696;28;20135;-78
2022/12/09 12:16:27;;;;;;;55.35;21.92;;;1.50;99.90;;;;;;5036211;28;19924;-79
2022/12/09 12:19:33;;;;;;;56.20;21.98;;;1.50;99.90;;;;;;5053040;28;20064;-78
2022/12/09 12:22:14;;;;;;;54.22;21.02;;;1.50;99.90;;;;;;5052838;28;20489;-76
2022/12/09 12:25:15;;;;;;;53.25;20.48;;;1.50;99.90;;;;;;5052875;28;20071;-77
2022/12/09 12:27:52;;;;;;;62.92;21.25;;;1.50;99.90;;;;;;5053967;28;20059;-76
2022/12/09 12:30:26;;;;;;;55.70;21.27;;;1.60;99.90;;;;;;5052737;28;20511;-78
2022/12/09 12:33:17;;;;;;;54.83;22.15;;;1.60;99.90;;;;;;5052820;28;20048;-77
2022/12/09 12:36:03;;;;;;;54.70;20.90;;;1.50;99.90;;;;;;5052633;28;20083;-78
2022/12/09 12:38:47;;;;;;;59.95;20.42;;;1.70;99.90;;;;;;5052850;28;20132;-78
2022/12/09 12:41:26;;;;;;;55.10;22.02;;;1.80;99.90;;;;;;5052623;28;20056;-77
2022/12/09 12:47:43;;;;;;;50.70;20.02;;;1.90;99.90;;;;;;5037088;28;20063;-78
2022/12/09 12:50:31;;;;;;;49.38;19.20;;;1.90;99.90;;;;;;5052039;28;20051;-78
2022/12/09 12:53:05;;;;;;;48.08;19.08;;;1.90;99.90;;;;;;5053113;28;20049;-78
2022/12/09 12:56:09;;;;;;;46.80;19.25;;;2.00;99.90;;;;;;5050659;28;20045;-78